Davie, FL (33355)

8:46 AM EDT on August 28, 2014 (GMT -0400)
Plantation, FL just off Commadore | Change Station
CLOSE
Current Station
Personal Weather Station
Location: Plantation, FL
Elevation: 19 ft
Nearby Weather Stations

Elev 19 ft 26.12 °N, 80.33 °W | Updated 37 seconds ago

Partly Cloudy
Partly Cloudy
85.3 °F
Feels Like 97 °F
N
1.0
Wind Variable Wind from SE
Gusts 2.0 mph

Today
High -- | Low -- °F
--% Chance of Precip.
Yesterday
High -- | Low -- °F
Precip. -- in
6:59 AM 7:44 PM
Waxing Crescent, 8% visible
Pressure 29.98 in
Visibility 10.0 miles
Clouds Few 3000 ft
Scattered Clouds 7500 ft
Mostly Cloudy 10000 ft
Heat Index 97 °F
Dew Point 78 °F
Humidity 79%
Rainfall 0.00 in
Snow Depth Not available.
UV 0 out of 12
Pollen 4.40 out of 12
Air Quality Not available.
Flu Activity Not available.
METAR KFLL 281153Z 23006KT 10SM FEW030 SCT075 BKN100 28/25 A2998 RMK AO2 RAB04E23 SLP151 6//// 7//// T02780250 10294 20278 53014 $

More Conditions Fewer Conditions

Pressure 29.98 in
Visibility 10.0 miles
Clouds Few 3000 ft
Scattered Clouds 7500 ft
Mostly Cloudy 10000 ft
Heat Index 97 °F
Dew Point 78 °F
Humidity 79%
Rainfall 0.00 in
Snow Depth Not available.
UV 0 out of 12
Pollen 4.40 out of 12
Air Quality Not available.
Flu Activity Not available.
METAR KFLL 281153Z 23006KT 10SM FEW030 SCT075 BKN100 28/25 A2998 RMK AO2 RAB04E23 SLP151 6//// 7//// T02780250 10294 20278 53014 $

More Conditions Fewer Conditions

10-Day Weather Forecast

Almanac

Astronomy

Aug. 28, 2014 Rise Set
Actual Time 6:59 AM EDT 7:44 PM EDT
Civil Twilight 6:35 AM EDT 8:08 PM EDT
Nautical Twilight 6:08 AM EDT 8:36 PM EDT
Astronomical Twilight 5:39 AM EDT 9:04 PM EDT
Moon 9:30 AM EDT 9:30 PM EDT
Length of Visible Light 13h 32m
Length of Day
12h 45m
Tomorrow will be 1m 27s shorter.
Waxing Crescent, 8% of the Moon is Illuminated
Today
Waxing Crescent
Sep 2
First Quarter
Sep 8
Full
Sep 15
Last Quarter
Sep 24
New

Today's Extremes

State Highs State Lows

Community

WunderPhotos

Upload Photos

1,747,945 photos uploaded!

Nearby

Air Quality

  Air Quality AQ Index Pollutant
Thursday Good
OZONE

Snow Depth

Station Depth Elevation
No new snow has been reported.

Earthquake Activity

City Distance Mag. Time & Date
No recent earthquake activity has been reported nearby.
Minimum magnitude displayed is 2.5.

Coastal Water Temperatures

Place Temperature
Virginia Key, FL 86.0 °F

Nearby Weather Stations